Time;durP1;ratioP1;P1;durP2;ratioP2;P2;SDS_P1;SDS_P2;PMS_P1;PMS_P2;Temp;Humidity;BMP_temperature;BMP_pressure;BME280_temperature;BME280_humidity;BME280_pressure;Samples;Min_cycle;Max_cycle;Signal;HPM_P1;HPM_P2
2023/05/19 00:08:08;;;;;;;1.40;0.90;;;;;;;18.35;50.10;102532.06;20895486;28;20124;-63
2023/05/19 00:18:12;;;;;;;1.48;0.88;;;;;;;18.33;50.28;102537.53;20895908;28;20051;-63
2023/05/19 00:28:14;;;;;;;2.77;0.80;;;;;;;18.31;50.27;102520.59;20913348;28;20513;-63
2023/05/19 00:38:16;;;;;;;1.52;0.70;;;;;;;18.11;50.10;102485.00;20910671;28;20092;-63
2023/05/19 00:48:18;;;;;;;1.10;0.80;;;;;;;18.25;50.00;102507.50;20893434;28;20088;-63
2023/05/19 00:58:22;;;;;;;0.80;0.57;;;;;;;18.25;50.10;102496.72;20890317;28;20045;-63
2023/05/19 01:08:24;;;;;;;0.65;0.60;;;;;;;18.24;50.07;102493.16;20900713;28;20049;-63
2023/05/19 01:19:04;;;;;;;1.48;1.00;;;;;;;18.22;50.20;102488.84;20890257;28;20052;-63
2023/05/19 01:29:29;;;;;;;1.80;0.90;;;;;;;18.22;50.18;102494.22;20906643;28;20049;-63
2023/05/19 01:39:32;;;;;;;1.00;0.70;;;;;;;18.23;50.10;102480.63;20907007;28;20124;-63
2023/05/19 01:49:33;;;;;;;1.30;0.60;;;;;;;18.23;50.21;102485.19;20906409;28;20099;-63
2023/05/19 02:00:06;;;;;;;1.80;0.77;;;;;;;18.23;50.28;102479.78;20889854;28;20333;-63
2023/05/19 02:10:26;;;;;;;1.40;0.60;;;;;;;18.18;50.13;102471.16;20904421;28;20049;-63
2023/05/19 02:20:28;;;;;;;1.92;1.10;;;;;;;18.21;50.12;102462.84;20885989;28;20041;-63
2023/05/19 02:30:30;;;;;;;1.10;0.70;;;;;;;18.20;50.11;102461.97;20885027;28;20125;-63
2023/05/19 02:40:33;;;;;;;1.55;0.80;;;;;;;18.19;49.94;102462.94;20902401;28;20053;-63
2023/05/19 02:50:35;;;;;;;0.68;0.50;;;;;;;18.18;49.88;102457.66;20883603;28;20045;-63
2023/05/19 03:00:37;;;;;;;1.55;0.90;;;;;;;18.14;49.91;102443.50;20890382;28;20052;-63
2023/05/19 03:10:39;;;;;;;2.22;0.80;;;;;;;18.12;49.97;102445.44;20901423;28;20041;-63
2023/05/19 03:20:43;;;;;;;1.10;0.68;;;;;;;18.10;49.77;102441.97;20900405;28;20041;-63
2023/05/19 03:30:45;;;;;;;1.13;0.57;;;;;;;18.08;49.87;102439.38;20898145;28;20049;-63
2023/05/19 03:40:52;;;;;;;2.15;0.75;;;;;;;18.07;49.89;102447.56;20909921;28;20052;-63
2023/05/19 03:50:54;;;;;;;2.42;1.00;;;;;;;18.05;49.86;102450.34;20914574;28;20135;-63
2023/05/19 04:01:00;;;;;;;1.55;0.65;;;;;;;18.03;49.84;102446.91;20900101;28;20191;-64
2023/05/19 04:11:01;;;;;;;0.80;0.57;;;;;;;18.02;49.89;102450.56;20912981;28;20049;-63
2023/05/19 04:21:03;;;;;;;1.30;0.68;;;;;;;18.01;49.86;102459.59;20895924;28;20059;-63
2023/05/19 04:31:09;;;;;;;1.25;0.50;;;;;;;18.01;49.84;102467.69;20894473;28;20131;-63
2023/05/19 04:41:11;;;;;;;0.50;0.47;;;;;;;18.01;49.92;102478.47;20909805;28;20132;-63
2023/05/19 04:51:16;;;;;;;1.42;0.80;;;;;;;17.94;49.98;102463.63;20909575;28;20106;-63
2023/05/19 05:01:21;;;;;;;0.40;0.40;;;;;;;18.02;49.99;102461.34;20893535;28;20087;-63
2023/05/19 05:11:23;;;;;;;1.73;0.70;;;;;;;18.02;50.00;102460.47;20908073;28;20063;-63
2023/05/19 05:21:25;;;;;;;1.15;0.70;;;;;;;18.04;50.19;102463.94;20907317;28;20068;-63
2023/05/19 05:31:27;;;;;;;0.93;0.60;;;;;;;18.05;50.17;102471.06;20908590;28;20045;-63
2023/05/19 05:41:34;;;;;;;0.90;0.60;;;;;;;18.05;50.29;102460.28;20905748;28;20110;-63
2023/05/19 05:51:40;;;;;;;1.42;0.80;;;;;;;18.06;50.65;102470.09;20901736;28;20726;-63
2023/05/19 06:01:51;;;;;;;1.17;0.75;;;;;;;18.08;50.50;102471.72;20872695;28;20136;-63
2023/05/19 06:11:56;;;;;;;1.23;0.70;;;;;;;18.09;50.52;102467.22;20903044;28;20448;-63
2023/05/19 06:21:59;;;;;;;1.23;0.90;;;;;;;18.09;50.69;102478.84;20886558;28;20083;-63
2023/05/19 06:32:01;;;;;;;1.42;0.80;;;;;;;18.13;50.77;102489.44;20885533;28;20041;-63
2023/05/19 06:42:03;;;;;;;1.75;0.70;;;;;;;18.14;50.87;102486.63;20884806;28;20509;-63
2023/05/19 06:52:24;;;;;;;1.13;0.70;;;;;;;18.20;50.95;102490.78;20871666;28;20439;-63
2023/05/19 07:02:27;;;;;;;1.88;1.05;;;;;;;18.26;50.79;102484.97;20883083;28;20099;-63
2023/05/19 07:12:29;;;;;;;2.63;0.82;;;;;;;18.29;50.82;102481.19;20899272;28;20111;-63
2023/05/19 07:22:34;;;;;;;1.98;0.77;;;;;;;18.34;51.05;102479.94;20882472;28;20410;-63
2023/05/19 07:32:36;;;;;;;1.60;0.70;;;;;;;18.43;50.91;102474.91;20882512;28;20045;-63
2023/05/19 07:42:37;;;;;;;2.33;0.82;;;;;;;18.43;50.78;102465.00;20899113;28;20075;-63
2023/05/19 07:52:39;;;;;;;1.20;0.68;;;;;;;18.56;50.61;102481.25;20889404;28;20061;-63
2023/05/19 08:02:41;;;;;;;1.20;0.70;;;;;;;18.62;50.61;102467.34;20897462;28;20045;-63
2023/05/19 08:12:43;;;;;;;0.90;0.75;;;;;;;18.72;50.32;102469.41;20898398;28;20052;-63
2023/05/19 08:22:44;;;;;;;1.52;0.70;;;;;;;18.82;50.38;102455.19;20902219;28;20083;-63
2023/05/19 08:32:47;;;;;;;1.27;0.70;;;;;;;18.87;50.02;102435.13;20912220;28;20084;-63
2023/05/19 08:42:49;;;;;;;2.20;1.00;;;;;;;19.02;49.93;102446.75;20911658;28;20057;-63
2023/05/19 08:52:56;;;;;;;0.88;0.65;;;;;;;19.06;50.02;102430.22;20897864;28;20048;-63
2023/05/19 09:02:59;;;;;;;0.82;0.60;;;;;;;19.10;49.55;102404.72;20909939;28;20094;-63
2023/05/19 09:13:18;;;;;;;1.25;0.77;;;;;;;19.15;49.58;102400.84;20909127;28;20094;-63
2023/05/19 09:23:23;;;;;;;1.92;0.93;;;;;;;19.18;49.54;102401.50;20907774;28;20056;-63
2023/05/19 09:33:25;;;;;;;1.80;0.70;;;;;;;19.18;49.67;102389.81;20906049;28;20049;-63
2023/05/19 09:43:28;;;;;;;1.05;0.60;;;;;;;19.17;49.88;102370.06;20906591;28;20045;-63
2023/05/19 09:53:31;;;;;;;1.65;0.75;;;;;;;19.25;49.67;102378.47;20889252;28;20125;-63
2023/05/19 10:03:33;;;;;;;0.80;0.70;;;;;;;19.27;49.78;102365.75;20905736;28;20501;-63
2023/05/19 10:13:37;;;;;;;1.45;0.60;;;;;;;19.28;49.85;102380.13;20904474;28;20140;-63
2023/05/19 10:23:39;;;;;;;1.40;0.60;;;;;;;19.26;49.78;102355.91;20902528;28;20080;-63
2023/05/19 10:33:55;;;;;;;1.10;0.60;;;;;;;19.28;49.80;102348.56;20902807;28;20509;-63
2023/05/19 10:44:20;;;;;;;0.70;0.60;;;;;;;19.29;49.97;102338.63;20898321;28;20046;-63
2023/05/19 10:54:42;;;;;;;1.23;0.70;;;;;;;19.32;50.22;102338.41;20893357;28;20072;-63
2023/05/19 11:04:49;;;;;;;0.93;0.73;;;;;;;19.33;49.96;102331.16;20901618;28;20098;-63
2023/05/19 11:14:53;;;;;;;0.80;0.50;;;;;;;19.34;50.10;102322.09;20901113;28;20053;-63
2023/05/19 11:24:55;;;;;;;0.80;0.50;;;;;;;19.37;49.87;102324.56;20900500;28;20049;-63
2023/05/19 11:34:57;;;;;;;0.98;0.43;;;;;;;19.39;49.94;102317.22;20900823;28;20045;-63
2023/05/19 11:44:59;;;;;;;0.52;0.45;;;;;;;19.32;49.98;102299.72;20883789;28;20437;-63
2023/05/19 11:55:00;;;;;;;1.00;0.50;;;;;;;19.32;50.07;102288.94;20899594;28;20045;-63
2023/05/19 12:05:02;;;;;;;0.60;0.43;;;;;;;19.38;50.19;102308.25;20914723;28;20409;-63
2023/05/19 12:15:05;;;;;;;0.82;0.60;;;;;;;19.39;50.12;102301.00;20913946;28;20052;-63
2023/05/19 12:25:07;;;;;;;0.50;0.50;;;;;;;19.38;50.24;102294.75;20912230;28;20394;-63
2023/05/19 12:35:09;;;;;;;0.73;0.50;;;;;;;19.32;50.14;102278.13;20912446;28;20103;-63
2023/05/19 12:45:11;;;;;;;0.70;0.43;;;;;;;19.38;50.27;102272.28;20901317;28;20072;-64
2023/05/19 12:55:15;;;;;;;0.75;0.40;;;;;;;19.36;50.16;102285.91;20893344;28;20049;-63
2023/05/19 13:05:16;;;;;;;1.27;0.50;;;;;;;19.19;50.11;102254.75;20909905;28;20049;-64
2023/05/19 13:15:18;;;;;;;0.73;0.55;;;;;;;19.34;50.03;102254.59;20909342;28;20586;-63
2023/05/19 13:25:21;;;;;;;0.60;0.50;;;;;;;19.33;50.23;102252.84;20908704;28;20055;-64
2023/05/19 13:35:23;;;;;;;0.80;0.55;;;;;;;19.33;50.14;102247.47;20907451;28;20049;-63
2023/05/19 13:45:25;;;;;;;1.05;0.60;;;;;;;19.32;50.22;102240.31;20894263;28;20456;-64
2023/05/19 13:55:27;;;;;;;1.17;0.57;;;;;;;19.31;50.34;102225.09;20904691;28;20049;-63
2023/05/19 14:05:29;;;;;;;1.63;0.50;;;;;;;19.33;50.29;102247.47;20904485;28;20045;-63
2023/05/19 14:15:36;;;;;;;0.60;0.60;;;;;;;19.28;50.19;102224.34;20904533;28;20041;-63
2023/05/19 14:25:38;;;;;;;0.57;0.47;;;;;;;19.28;50.24;102218.97;20902731;28;20053;-63
2023/05/19 14:35:39;;;;;;;0.50;0.50;;;;;;;19.28;50.30;102218.13;20903686;28;20128;-63
2023/05/19 14:45:41;;;;;;;0.88;0.52;;;;;;;19.28;50.28;102213.56;20892640;28;20053;-63
2023/05/19 14:55:42;;;;;;;0.40;0.40;;;;;;;19.27;50.30;102202.88;20901787;28;20091;-63
2023/05/19 15:05:44;;;;;;;0.80;0.50;;;;;;;19.26;50.28;102199.31;20901613;28;20049;-63
2023/05/19 15:15:46;;;;;;;0.40;0.40;;;;;;;19.26;50.39;102202.00;20882722;28;20681;-64
2023/05/19 15:25:47;;;;;;;0.52;0.50;;;;;;;19.25;50.36;102203.00;20900703;28;20115;-63
2023/05/19 15:35:50;;;;;;;1.00;0.65;;;;;;;19.24;50.37;102195.88;20910546;28;20485;-63
2023/05/19 15:45:53;;;;;;;0.68;0.50;;;;;;;19.25;50.37;102188.66;20904165;28;20129;-63
2023/05/19 15:55:56;;;;;;;0.45;0.43;;;;;;;19.21;50.25;102179.03;20915967;28;20053;-63
2023/05/19 16:05:58;;;;;;;0.80;0.70;;;;;;;19.25;50.41;102192.19;20914872;28;20049;-63
2023/05/19 16:16:00;;;;;;;0.73;0.60;;;;;;;19.24;50.18;102176.13;20914192;28;20076;-63
2023/05/19 16:26:01;;;;;;;1.02;0.60;;;;;;;19.24;50.19;102171.56;20913279;28;20495;-63
2023/05/19 16:36:05;;;;;;;0.40;0.40;;;;;;;19.23;50.21;102161.75;20887649;28;20061;-63
2023/05/19 16:46:08;;;;;;;0.40;0.40;;;;;;;19.24;50.40;102171.56;20884911;28;20416;-64
2023/05/19 16:56:10;;;;;;;0.88;0.40;;;;;;;19.22;50.36;102173.53;20910743;28;20049;-63
2023/05/19 17:06:11;;;;;;;0.93;0.60;;;;;;;19.21;50.36;102179.91;20908667;28;20056;-63
2023/05/19 17:16:13;;;;;;;0.75;0.60;;;;;;;19.21;50.26;102184.41;20909501;28;20127;-63
2023/05/19 17:26:15;;;;;;;0.75;0.60;;;;;;;19.18;50.30;102195.44;20908449;28;20106;-63
2023/05/19 17:36:17;;;;;;;1.08;0.50;;;;;;;19.16;50.52;102195.56;20897709;28;20049;-63
2023/05/19 17:46:18;;;;;;;0.75;0.50;;;;;;;19.17;50.31;102207.22;20907135;28;20045;-63
2023/05/19 17:56:21;;;;;;;0.60;0.50;;;;;;;19.14;50.48;102221.81;20905552;28;20052;-63
2023/05/19 18:06:24;;;;;;;0.90;0.50;;;;;;;19.13;50.73;102220.09;20905369;28;20532;-63
2023/05/19 18:16:28;;;;;;;0.50;0.50;;;;;;;19.12;50.69;102218.38;20904617;28;20045;-63
2023/05/19 18:26:30;;;;;;;0.45;0.45;;;;;;;19.11;50.70;102227.44;20904180;28;20055;-63
2023/05/19 18:36:33;;;;;;;1.50;0.80;;;;;;;19.04;50.84;102226.19;20889716;28;20508;-63
2023/05/19 18:46:35;;;;;;;1.00;0.60;;;;;;;19.08;50.91;102246.56;20902295;28;20060;-64
2023/05/19 18:56:37;;;;;;;0.70;0.43;;;;;;;19.05;50.85;102261.13;20902015;28;20056;-63
2023/05/19 19:06:38;;;;;;;1.48;0.63;;;;;;;19.06;50.90;102273.66;20901928;28;20056;-63
2023/05/19 19:16:41;;;;;;;0.88;0.57;;;;;;;19.06;50.83;102272.81;20900871;28;20056;-63
2023/05/19 19:26:43;;;;;;;0.70;0.50;;;;;;;19.05;51.17;102281.88;20900187;28;20079;-63
2023/05/19 19:36:46;;;;;;;1.38;0.70;;;;;;;19.03;51.08;102284.69;20891084;28;20067;-63
2023/05/19 19:46:48;;;;;;;0.85;0.68;;;;;;;19.01;50.91;102307.38;20900178;28;20088;-64
2023/05/19 19:56:50;;;;;;;2.25;0.80;;;;;;;18.99;50.92;102304.75;20899040;28;20063;-63
2023/05/19 20:06:51;;;;;;;1.65;0.90;;;;;;;18.98;50.80;102314.69;20897558;28;20080;-63
2023/05/19 20:16:53;;;;;;;1.48;0.73;;;;;;;18.96;51.04;102327.38;20900066;28;20060;-63
2023/05/19 20:27:01;;;;;;;1.17;0.65;;;;;;;18.95;50.94;102325.66;20911724;28;20500;-63
2023/05/19 20:37:02;;;;;;;1.13;0.60;;;;;;;18.94;50.94;102334.72;20899096;28;20048;-63
2023/05/19 20:47:06;;;;;;;0.60;0.60;;;;;;;18.94;51.19;102323.94;20910585;28;20055;-63
2023/05/19 20:57:08;;;;;;;1.00;0.50;;;;;;;18.93;51.08;102333.00;20911396;28;20135;-63
2023/05/19 21:07:10;;;;;;;0.98;0.70;;;;;;;18.92;50.69;102336.69;20909566;28;20045;-63
2023/05/19 21:17:12;;;;;;;0.70;0.70;;;;;;;18.91;51.15;102329.56;20910126;28;20726;-63
2023/05/19 21:27:13;;;;;;;0.70;0.60;;;;;;;18.90;50.92;102327.81;20907095;28;20416;-63
2023/05/19 21:37:16;;;;;;;0.80;0.70;;;;;;;18.88;50.94;102324.38;20892092;28;20053;-63
2023/05/19 21:47:18;;;;;;;1.77;0.85;;;;;;;18.88;51.17;102334.31;20907029;28;20060;-63
2023/05/19 21:57:19;;;;;;;1.15;0.80;;;;;;;18.86;51.22;102339.81;20907067;28;20092;-63
2023/05/19 22:07:25;;;;;;;0.73;0.60;;;;;;;18.84;51.36;102336.34;20887004;28;20124;-64
2023/05/19 22:17:27;;;;;;;1.08;0.77;;;;;;;18.82;51.44;102341.00;20903910;28;20052;-63
2023/05/19 22:27:29;;;;;;;2.10;0.90;;;;;;;18.81;51.25;102334.75;20900955;28;20474;-63
2023/05/19 22:37:31;;;;;;;1.02;0.73;;;;;;;18.80;51.16;102337.53;20891388;28;20088;-64
2023/05/19 22:47:32;;;;;;;1.02;0.70;;;;;;;18.78;51.45;102331.41;20899699;28;20053;-63
2023/05/19 22:57:34;;;;;;;1.52;0.90;;;;;;;18.78;51.59;102326.00;20901719;28;20079;-64
2023/05/19 23:07:36;;;;;;;1.00;0.70;;;;;;;18.77;51.70;102330.50;20901392;28;20132;-63
2023/05/19 23:17:37;;;;;;;2.35;0.95;;;;;;;18.76;51.47;102330.63;20900398;28;20040;-63
2023/05/19 23:27:40;;;;;;;1.65;1.00;;;;;;;18.74;51.58;102333.44;20888016;28;20464;-63
2023/05/19 23:37:41;;;;;;;1.58;0.90;;;;;;;18.74;51.68;102327.19;20898668;28;20051;-63
2023/05/19 23:47:43;;;;;;;1.08;0.80;;;;;;;18.73;51.68;102330.84;20899640;28;20072;-63
2023/05/19 23:57:45;;;;;;;1.50;0.98;;;;;;;18.70;51.74;102321.13;20910477;28;20057;-63
